sensor_id;sensor_type;location;lat;lon;timestamp;temperature;humidity
26021;DHT22;13798;48.858;9.092;2022-07-10T00:02:06;435.80;2355.20
26021;DHT22;13798;48.858;9.092;2022-07-10T00:08:59;435.40;2355.20
26021;DHT22;13798;48.858;9.092;2022-07-10T00:12:27;435.50;2355.20
26021;DHT22;13798;48.858;9.092;2022-07-10T00:18:28;435.50;2355.20
26021;DHT22;13798;48.858;9.092;2022-07-10T00:21:44;435.20;2355.20
26021;DHT22;13798;48.858;9.092;2022-07-10T00:28:19;410.50;2355.20
26021;DHT22;13798;48.858;9.092;2022-07-10T00:41:04;435.40;2355.20
26021;DHT22;13798;48.858;9.092;2022-07-10T00:51:33;410.30;2355.20
26021;DHT22;13798;48.858;9.092;2022-07-10T00:55:14;410.20;2355.20
26021;DHT22;13798;48.858;9.092;2022-07-10T00:58:39;410.10;2355.20
26021;DHT22;13798;48.858;9.092;2022-07-10T01:04:52;410.20;2355.20
26021;DHT22;13798;48.858;9.092;2022-07-10T01:14:30;410.30;2355.20
26021;DHT22;13798;48.858;9.092;2022-07-10T01:38:21;410.10;2355.20
26021;DHT22;13798;48.858;9.092;2022-07-10T01:51:22;409.90;2355.20
26021;DHT22;13798;48.858;9.092;2022-07-10T01:54:23;409.90;2355.20
26021;DHT22;13798;48.858;9.092;2022-07-10T02:01:09;410.20;2355.20
26021;DHT22;13798;48.858;9.092;2022-07-10T02:07:52;409.80;2355.20
26021;DHT22;13798;48.858;9.092;2022-07-10T02:14:28;409.70;2355.20
26021;DHT22;13798;48.858;9.092;2022-07-10T02:17:49;409.70;2355.20
26021;DHT22;13798;48.858;9.092;2022-07-10T02:24:34;409.80;2355.20
26021;DHT22;13798;48.858;9.092;2022-07-10T02:27:15;410.00;2355.20
26021;DHT22;13798;48.858;9.092;2022-07-10T02:29:40;409.90;2355.20
26021;DHT22;13798;48.858;9.092;2022-07-10T02:32:06;409.90;2355.20
26021;DHT22;13798;48.858;9.092;2022-07-10T02:34:32;410.00;2355.20
26021;DHT22;13798;48.858;9.092;2022-07-10T02:36:57;409.80;2355.20
26021;DHT22;13798;48.858;9.092;2022-07-10T02:39:23;384.90;2329.60
26021;DHT22;13798;48.858;9.092;2022-07-10T02:41:48;409.60;2355.20
26021;DHT22;13798;48.858;9.092;2022-07-10T02:44:14;409.80;2355.20
26021;DHT22;13798;48.858;9.092;2022-07-10T02:46:39;409.60;2355.20
26021;DHT22;13798;48.858;9.092;2022-07-10T02:49:05;409.60;2355.20
26021;DHT22;13798;48.858;9.092;2022-07-10T02:51:30;409.80;2355.20
26021;DHT22;13798;48.858;9.092;2022-07-10T02:53:56;409.80;2355.20
26021;DHT22;13798;48.858;9.092;2022-07-10T02:56:22;384.90;2329.60
26021;DHT22;13798;48.858;9.092;2022-07-10T02:58:47;409.60;2355.20
26021;DHT22;13798;48.858;9.092;2022-07-10T03:01:13;409.80;2355.20
26021;DHT22;13798;48.858;9.092;2022-07-10T03:03:38;409.90;2355.20
26021;DHT22;13798;48.858;9.092;2022-07-10T03:06:04;384.90;2329.60
26021;DHT22;13798;48.858;9.092;2022-07-10T03:08:29;384.80;2329.60
26021;DHT22;13798;48.858;9.092;2022-07-10T03:10:55;409.90;2355.20
26021;DHT22;13798;48.858;9.092;2022-07-10T03:13:20;409.60;2355.20
26021;DHT22;13798;48.858;9.092;2022-07-10T03:15:46;409.80;2355.20
26021;DHT22;13798;48.858;9.092;2022-07-10T03:18:11;409.90;2355.20
26021;DHT22;13798;48.858;9.092;2022-07-10T03:20:37;409.70;2355.20
26021;DHT22;13798;48.858;9.092;2022-07-10T03:23:02;409.70;2355.20
26021;DHT22;13798;48.858;9.092;2022-07-10T03:25:28;384.90;2329.60
26021;DHT22;13798;48.858;9.092;2022-07-10T03:27:53;409.60;2355.20
26021;DHT22;13798;48.858;9.092;2022-07-10T03:30:19;384.90;2329.60
26021;DHT22;13798;48.858;9.092;2022-07-10T03:32:45;384.70;2329.60
26021;DHT22;13798;48.858;9.092;2022-07-10T03:35:11;384.60;2329.60
26021;DHT22;13798;48.858;9.092;2022-07-10T03:37:36;384.60;2329.60
26021;DHT22;13798;48.858;9.092;2022-07-10T03:40:02;384.90;2329.60
26021;DHT22;13798;48.858;9.092;2022-07-10T03:42:27;384.80;2329.60
26021;DHT22;13798;48.858;9.092;2022-07-10T03:44:53;384.80;2329.60
26021;DHT22;13798;48.858;9.092;2022-07-10T03:47:18;384.50;2329.60
26021;DHT22;13798;48.858;9.092;2022-07-10T03:49:44;384.50;2329.60
26021;DHT22;13798;48.858;9.092;2022-07-10T03:52:09;384.60;2329.60
26021;DHT22;13798;48.858;9.092;2022-07-10T03:54:35;384.40;2329.60
26021;DHT22;13798;48.858;9.092;2022-07-10T03:57:00;384.70;2329.60
26021;DHT22;13798;48.858;9.092;2022-07-10T03:59:44;384.70;2329.60
26021;DHT22;13798;48.858;9.092;2022-07-10T04:02:10;409.60;2355.20
26021;DHT22;13798;48.858;9.092;2022-07-10T04:04:36;384.80;2329.60
26021;DHT22;13798;48.858;9.092;2022-07-10T04:07:02;384.90;2329.60
26021;DHT22;13798;48.858;9.092;2022-07-10T04:09:27;409.70;2355.20
26021;DHT22;13798;48.858;9.092;2022-07-10T04:11:53;384.90;2329.60
26021;DHT22;13798;48.858;9.092;2022-07-10T04:14:18;409.70;2355.20
26021;DHT22;13798;48.858;9.092;2022-07-10T04:16:44;384.80;2329.60
26021;DHT22;13798;48.858;9.092;2022-07-10T04:19:10;409.60;2355.20
26021;DHT22;13798;48.858;9.092;2022-07-10T04:21:35;409.70;2355.20
26021;DHT22;13798;48.858;9.092;2022-07-10T04:24:02;409.60;2355.20
26021;DHT22;13798;48.858;9.092;2022-07-10T04:26:28;384.90;2329.60
26021;DHT22;13798;48.858;9.092;2022-07-10T04:28:54;409.60;2355.20
26021;DHT22;13798;48.858;9.092;2022-07-10T04:31:19;384.90;2329.60
26021;DHT22;13798;48.858;9.092;2022-07-10T04:33:45;384.80;2329.60
26021;DHT22;13798;48.858;9.092;2022-07-10T04:36:10;409.80;2355.20
26021;DHT22;13798;48.858;9.092;2022-07-10T04:38:35;409.60;2355.20
26021;DHT22;13798;48.858;9.092;2022-07-10T04:41:01;384.80;2329.60
26021;DHT22;13798;48.858;9.092;2022-07-10T04:43:27;384.90;2329.60
26021;DHT22;13798;48.858;9.092;2022-07-10T04:45:52;409.80;2355.20
26021;DHT22;13798;48.858;9.092;2022-07-10T04:48:18;409.70;2355.20
26021;DHT22;13798;48.858;9.092;2022-07-10T04:50:43;384.90;2329.60
26021;DHT22;13798;48.858;9.092;2022-07-10T04:53:09;409.80;2355.20
26021;DHT22;13798;48.858;9.092;2022-07-10T04:55:34;409.80;2355.20
26021;DHT22;13798;48.858;9.092;2022-07-10T04:58:00;409.90;2355.20
26021;DHT22;13798;48.858;9.092;2022-07-10T05:00:25;409.60;2355.20
26021;DHT22;13798;48.858;9.092;2022-07-10T05:02:51;409.80;2355.20
26021;DHT22;13798;48.858;9.092;2022-07-10T05:05:16;409.60;2355.20
26021;DHT22;13798;48.858;9.092;2022-07-10T05:07:42;409.80;2355.20
26021;DHT22;13798;48.858;9.092;2022-07-10T05:10:08;409.90;2355.20
26021;DHT22;13798;48.858;9.092;2022-07-10T05:12:34;410.00;2355.20
26021;DHT22;13798;48.858;9.092;2022-07-10T05:15:00;409.90;2355.20
26021;DHT22;13798;48.858;9.092;2022-07-10T05:17:26;410.00;2355.20
26021;DHT22;13798;48.858;9.092;2022-07-10T05:19:54;409.80;2355.20
26021;DHT22;13798;48.858;9.092;2022-07-10T05:22:21;384.90;2329.60
26021;DHT22;13798;48.858;9.092;2022-07-10T05:24:47;409.60;2355.20
26021;DHT22;13798;48.858;9.092;2022-07-10T05:27:12;409.90;2355.20
26021;DHT22;13798;48.858;9.092;2022-07-10T05:29:38;409.80;2355.20
26021;DHT22;13798;48.858;9.092;2022-07-10T05:32:04;409.60;2355.20
26021;DHT22;13798;48.858;9.092;2022-07-10T05:34:29;409.90;2355.20
26021;DHT22;13798;48.858;9.092;2022-07-10T05:36:55;410.20;2355.20
26021;DHT22;13798;48.858;9.092;2022-07-10T05:39:20;410.00;2355.20
26021;DHT22;13798;48.858;9.092;2022-07-10T05:41:47;409.90;2355.20
26021;DHT22;13798;48.858;9.092;2022-07-10T05:44:12;410.30;2355.20
26021;DHT22;13798;48.858;9.092;2022-07-10T05:46:38;410.20;2355.20
26021;DHT22;13798;48.858;9.092;2022-07-10T05:49:04;410.30;2355.20
26021;DHT22;13798;48.858;9.092;2022-07-10T05:51:29;410.20;2355.20
26021;DHT22;13798;48.858;9.092;2022-07-10T05:53:55;410.30;2355.20
26021;DHT22;13798;48.858;9.092;2022-07-10T05:56:20;410.30;2355.20
26021;DHT22;13798;48.858;9.092;2022-07-10T05:58:46;410.50;2355.20
26021;DHT22;13798;48.858;9.092;2022-07-10T06:01:11;410.40;2355.20
26021;DHT22;13798;48.858;9.092;2022-07-10T06:03:37;410.10;2355.20
26021;DHT22;13798;48.858;9.092;2022-07-10T06:06:03;410.30;2355.20
26021;DHT22;13798;48.858;9.092;2022-07-10T06:08:28;410.50;2355.20
26021;DHT22;13798;48.858;9.092;2022-07-10T06:10:53;410.50;2355.20
26021;DHT22;13798;48.858;9.092;2022-07-10T06:13:19;410.50;2355.20
26021;DHT22;13798;48.858;9.092;2022-07-10T06:15:44;410.40;2355.20
26021;DHT22;13798;48.858;9.092;2022-07-10T06:18:10;410.50;2355.20
26021;DHT22;13798;48.858;9.092;2022-07-10T06:20:36;435.30;2355.20
26021;DHT22;13798;48.858;9.092;2022-07-10T06:23:01;410.30;2355.20
26021;DHT22;13798;48.858;9.092;2022-07-10T06:25:27;410.40;2355.20
26021;DHT22;13798;48.858;9.092;2022-07-10T06:27:52;435.30;2355.20
26021;DHT22;13798;48.858;9.092;2022-07-10T06:30:18;435.40;2355.20
26021;DHT22;13798;48.858;9.092;2022-07-10T06:32:43;435.50;2355.20
26021;DHT22;13798;48.858;9.092;2022-07-10T06:35:09;435.40;2355.20
26021;DHT22;13798;48.858;9.092;2022-07-10T06:37:35;435.20;2355.20
26021;DHT22;13798;48.858;9.092;2022-07-10T06:40:01;435.60;2355.20
26021;DHT22;13798;48.858;9.092;2022-07-10T06:42:26;435.60;2355.20
26021;DHT22;13798;48.858;9.092;2022-07-10T06:44:52;435.80;2355.20
26021;DHT22;13798;48.858;9.092;2022-07-10T06:47:19;435.50;2355.20
26021;DHT22;13798;48.858;9.092;2022-07-10T06:50:08;435.40;2355.20
26021;DHT22;13798;48.858;9.092;2022-07-10T06:52:34;435.30;2355.20
26021;DHT22;13798;48.858;9.092;2022-07-10T06:55:00;435.50;2355.20
26021;DHT22;13798;48.858;9.092;2022-07-10T06:57:26;435.20;2355.20
26021;DHT22;13798;48.858;9.092;2022-07-10T06:59:52;410.50;2355.20
26021;DHT22;13798;48.858;9.092;2022-07-10T07:02:18;435.40;2355.20
26021;DHT22;13798;48.858;9.092;2022-07-10T07:04:43;435.30;2355.20
26021;DHT22;13798;48.858;9.092;2022-07-10T07:07:15;410.50;2355.20
26021;DHT22;13798;48.858;9.092;2022-07-10T07:09:41;435.40;2355.20
26021;DHT22;13798;48.858;9.092;2022-07-10T07:12:08;435.60;2355.20
26021;DHT22;13798;48.858;9.092;2022-07-10T07:14:34;435.60;2355.20
26021;DHT22;13798;48.858;9.092;2022-07-10T07:16:59;435.50;2355.20
26021;DHT22;13798;48.858;9.092;2022-07-10T07:19:34;435.80;2355.20
26021;DHT22;13798;48.858;9.092;2022-07-10T07:22:22;435.70;2355.20
26021;DHT22;13798;48.858;9.092;2022-07-10T07:25:07;435.60;2355.20
26021;DHT22;13798;48.858;9.092;2022-07-10T07:27:35;435.50;2355.20
26021;DHT22;13798;48.858;9.092;2022-07-10T07:30:10;435.90;2355.20
26021;DHT22;13798;48.858;9.092;2022-07-10T07:32:37;435.80;2355.20
26021;DHT22;13798;48.858;9.092;2022-07-10T07:35:03;435.50;2355.20
26021;DHT22;13798;48.858;9.092;2022-07-10T07:37:40;435.60;2355.20
26021;DHT22;13798;48.858;9.092;2022-07-10T07:40:14;435.20;2355.20
26021;DHT22;13798;48.858;9.092;2022-07-10T07:42:40;435.60;2355.20
26021;DHT22;13798;48.858;9.092;2022-07-10T07:45:07;435.70;2355.20
26021;DHT22;13798;48.858;9.092;2022-07-10T07:47:49;435.90;2355.20
26021;DHT22;13798;48.858;9.092;2022-07-10T07:50:17;435.90;2355.20
26021;DHT22;13798;48.858;9.092;2022-07-10T07:52:45;435.60;2355.20
26021;DHT22;13798;48.858;9.092;2022-07-10T07:55:12;435.50;2355.20
26021;DHT22;13798;48.858;9.092;2022-07-10T07:57:38;436.10;2355.20
26021;DHT22;13798;48.858;9.092;2022-07-10T08:00:04;436.00;2355.20
26021;DHT22;13798;48.858;9.092;2022-07-10T08:02:31;435.60;2355.20
26021;DHT22;13798;48.858;9.092;2022-07-10T08:04:56;435.90;2355.20
26021;DHT22;13798;48.858;9.092;2022-07-10T08:07:22;460.80;2380.80
26021;DHT22;13798;48.858;9.092;2022-07-10T08:09:47;436.00;2355.20
26021;DHT22;13798;48.858;9.092;2022-07-10T08:12:14;436.00;2355.20
26021;DHT22;13798;48.858;9.092;2022-07-10T08:14:39;461.10;2380.80
26021;DHT22;13798;48.858;9.092;2022-07-10T08:17:05;460.90;2380.80
26021;DHT22;13798;48.858;9.092;2022-07-10T08:19:30;436.10;2355.20
26021;DHT22;13798;48.858;9.092;2022-07-10T08:21:56;460.90;2380.80
26021;DHT22;13798;48.858;9.092;2022-07-10T08:24:21;460.90;2380.80
26021;DHT22;13798;48.858;9.092;2022-07-10T08:26:47;461.20;2380.80
26021;DHT22;13798;48.858;9.092;2022-07-10T08:29:13;461.10;2380.80
26021;DHT22;13798;48.858;9.092;2022-07-10T08:31:38;461.50;2380.80
26021;DHT22;13798;48.858;9.092;2022-07-10T08:34:05;461.40;2380.80
26021;DHT22;13798;48.858;9.092;2022-07-10T08:36:30;461.50;2380.80
26021;DHT22;13798;48.858;9.092;2022-07-10T08:38:56;461.20;2380.80
26021;DHT22;13798;48.858;9.092;2022-07-10T08:41:25;461.20;2380.80
26021;DHT22;13798;48.858;9.092;2022-07-10T08:43:51;461.20;2380.80
26021;DHT22;13798;48.858;9.092;2022-07-10T08:46:17;461.00;2380.80
26021;DHT22;13798;48.858;9.092;2022-07-10T08:48:47;461.00;2380.80
26021;DHT22;13798;48.858;9.092;2022-07-10T08:51:18;436.10;2355.20
26021;DHT22;13798;48.858;9.092;2022-07-10T08:53:46;461.20;2380.80
26021;DHT22;13798;48.858;9.092;2022-07-10T08:56:15;461.30;2380.80
26021;DHT22;13798;48.858;9.092;2022-07-10T08:58:41;486.80;2380.80
26021;DHT22;13798;48.858;9.092;2022-07-10T09:01:07;486.50;2380.80
26021;DHT22;13798;48.858;9.092;2022-07-10T09:03:33;486.60;2380.80
26021;DHT22;13798;48.858;9.092;2022-07-10T09:05:59;512.10;2380.80
26021;DHT22;13798;48.858;9.092;2022-07-10T09:08:26;487.20;2380.80
26021;DHT22;13798;48.858;9.092;2022-07-10T09:11:15;512.20;2380.80
26021;DHT22;13798;48.858;9.092;2022-07-10T09:13:56;512.10;2380.80
26021;DHT22;13798;48.858;9.092;2022-07-10T09:16:26;512.50;2380.80
26021;DHT22;13798;48.858;9.092;2022-07-10T09:18:52;512.60;2380.80
26021;DHT22;13798;48.858;9.092;2022-07-10T09:21:18;512.10;2380.80
26021;DHT22;13798;48.858;9.092;2022-07-10T09:23:44;512.00;2380.80
26021;DHT22;13798;48.858;9.092;2022-07-10T09:26:10;487.00;2380.80
26021;DHT22;13798;48.858;9.092;2022-07-10T09:28:35;487.00;2380.80
26021;DHT22;13798;48.858;9.092;2022-07-10T09:31:01;487.30;2380.80
26021;DHT22;13798;48.858;9.092;2022-07-10T09:33:28;512.40;2380.80
26021;DHT22;13798;48.858;9.092;2022-07-10T09:36:01;512.50;2380.80
26021;DHT22;13798;48.858;9.092;2022-07-10T09:43:48;486.90;2380.80
26021;DHT22;13798;48.858;9.092;2022-07-10T09:46:15;487.30;2380.80
26021;DHT22;13798;48.858;9.092;2022-07-10T09:48:41;487.30;2380.80
26021;DHT22;13798;48.858;9.092;2022-07-10T09:51:07;512.20;2380.80
26021;DHT22;13798;48.858;9.092;2022-07-10T09:53:41;486.80;2380.80
26021;DHT22;13798;48.858;9.092;2022-07-10T09:56:09;486.60;2380.80
26021;DHT22;13798;48.858;9.092;2022-07-10T09:58:35;512.00;2380.80
26021;DHT22;13798;48.858;9.092;2022-07-10T10:01:05;486.40;2380.80
26021;DHT22;13798;48.858;9.092;2022-07-10T10:03:34;486.40;2380.80
26021;DHT22;13798;48.858;9.092;2022-07-10T10:06:18;486.90;2380.80
26021;DHT22;13798;48.858;9.092;2022-07-10T10:09:04;487.10;2380.80
26021;DHT22;13798;48.858;9.092;2022-07-10T10:11:33;512.40;2380.80
26021;DHT22;13798;48.858;9.092;2022-07-10T10:14:01;487.10;2380.80
26021;DHT22;13798;48.858;9.092;2022-07-10T10:16:28;461.60;2380.80
26021;DHT22;13798;48.858;9.092;2022-07-10T10:18:55;461.50;2380.80
26021;DHT22;13798;48.858;9.092;2022-07-10T10:21:40;486.60;2380.80
26021;DHT22;13798;48.858;9.092;2022-07-10T10:24:06;486.90;2380.80
26021;DHT22;13798;48.858;9.092;2022-07-10T10:26:32;486.70;2380.80
26021;DHT22;13798;48.858;9.092;2022-07-10T10:29:01;487.20;2380.80
26021;DHT22;13798;48.858;9.092;2022-07-10T10:31:30;512.80;2380.80
26021;DHT22;13798;48.858;9.092;2022-07-10T10:33:57;537.70;2406.40
26021;DHT22;13798;48.858;9.092;2022-07-10T10:39:16;512.70;2380.80
26021;DHT22;13798;48.858;9.092;2022-07-10T10:41:52;537.70;2406.40
26021;DHT22;13798;48.858;9.092;2022-07-10T10:49:15;563.40;2432.00
26021;DHT22;13798;48.858;9.092;2022-07-10T10:52:04;563.30;2432.00
26021;DHT22;13798;48.858;9.092;2022-07-10T10:57:47;537.80;2406.40
26021;DHT22;13798;48.858;9.092;2022-07-10T11:00:15;537.70;2406.40
26021;DHT22;13798;48.858;9.092;2022-07-10T11:02:41;538.30;2406.40
26021;DHT22;13798;48.858;9.092;2022-07-10T11:15:28;563.40;2432.00
26021;DHT22;13798;48.858;9.092;2022-07-10T11:18:19;563.40;2432.00
26021;DHT22;13798;48.858;9.092;2022-07-10T11:20:46;563.20;2432.00
26021;DHT22;13798;48.858;9.092;2022-07-10T11:25:54;538.20;2406.40
26021;DHT22;13798;48.858;9.092;2022-07-10T11:28:57;589.00;2432.00
26021;DHT22;13798;48.858;9.092;2022-07-10T11:31:24;538.40;2406.40
26021;DHT22;13798;48.858;9.092;2022-07-10T11:33:52;589.40;2432.00
26021;DHT22;13798;48.858;9.092;2022-07-10T11:36:22;614.40;2432.00
26021;DHT22;13798;48.858;9.092;2022-07-10T11:38:57;589.20;2432.00
26021;DHT22;13798;48.858;9.092;2022-07-10T11:41:23;563.80;2432.00
26021;DHT22;13798;48.858;9.092;2022-07-10T11:44:35;563.90;2432.00
26021;DHT22;13798;48.858;9.092;2022-07-10T11:46:43;589.50;2432.00
26021;DHT22;13798;48.858;9.092;2022-07-10T11:49:11;563.90;2432.00
26021;DHT22;13798;48.858;9.092;2022-07-10T11:51:40;589.00;2432.00
26021;DHT22;13798;48.858;9.092;2022-07-10T11:54:11;564.00;2432.00
26021;DHT22;13798;48.858;9.092;2022-07-10T11:56:40;564.10;2432.00
26021;DHT22;13798;48.858;9.092;2022-07-10T11:59:11;564.10;2432.00
26021;DHT22;13798;48.858;9.092;2022-07-10T12:01:44;589.40;2432.00
26021;DHT22;13798;48.858;9.092;2022-07-10T12:04:11;563.90;2432.00
26021;DHT22;13798;48.858;9.092;2022-07-10T12:06:41;538.40;2406.40
26021;DHT22;13798;48.858;9.092;2022-07-10T12:09:09;563.60;2432.00
26021;DHT22;13798;48.858;9.092;2022-07-10T12:11:35;614.40;2432.00
26021;DHT22;13798;48.858;9.092;2022-07-10T12:16:41;614.90;2432.00
26021;DHT22;13798;48.858;9.092;2022-07-10T12:19:13;614.90;2432.00
26021;DHT22;13798;48.858;9.092;2022-07-10T12:21:42;589.50;2432.00
26021;DHT22;13798;48.858;9.092;2022-07-10T12:24:08;640.90;2432.00
26021;DHT22;13798;48.858;9.092;2022-07-10T12:26:36;666.50;2432.00
26021;DHT22;13798;48.858;9.092;2022-07-10T12:29:05;666.10;2432.00
26021;DHT22;13798;48.858;9.092;2022-07-10T12:31:33;666.50;2432.00
26021;DHT22;13798;48.858;9.092;2022-07-10T12:34:03;666.40;2432.00
26021;DHT22;13798;48.858;9.092;2022-07-10T12:36:42;691.50;2432.00
26021;DHT22;13798;48.858;9.092;2022-07-10T12:39:09;640.30;2432.00
26021;DHT22;13798;48.858;9.092;2022-07-10T12:41:35;691.20;2432.00
26021;DHT22;13798;48.858;9.092;2022-07-10T12:44:00;615.10;2432.00
26021;DHT22;13798;48.858;9.092;2022-07-10T12:46:26;615.10;2432.00
26021;DHT22;13798;48.858;9.092;2022-07-10T12:49:06;614.90;2432.00
26021;DHT22;13798;48.858;9.092;2022-07-10T12:51:34;640.70;2380.80
26021;DHT22;13798;48.858;9.092;2022-07-10T12:54:07;666.50;2304.00
26021;DHT22;13798;48.858;9.092;2022-07-10T12:56:37;691.60;2406.40
26021;DHT22;13798;48.858;9.092;2022-07-10T12:59:12;691.50;2201.60
26021;DHT22;13798;48.858;9.092;2022-07-10T13:01:44;665.80;2278.40
26021;DHT22;13798;48.858;9.092;2022-07-10T13:04:11;666.40;2278.40
26021;DHT22;13798;48.858;9.092;2022-07-10T13:06:38;691.60;2304.00
26021;DHT22;13798;48.858;9.092;2022-07-10T13:09:25;717.20;2252.80
26021;DHT22;13798;48.858;9.092;2022-07-10T13:11:52;717.40;2227.20
26021;DHT22;13798;48.858;9.092;2022-07-10T13:14:19;717.10;2278.40
26021;DHT22;13798;48.858;9.092;2022-07-10T13:16:45;717.60;2201.60
26021;DHT22;13798;48.858;9.092;2022-07-10T13:19:11;742.60;2176.00
26021;DHT22;13798;48.858;9.092;2022-07-10T13:21:37;742.40;2201.60
26021;DHT22;13798;48.858;9.092;2022-07-10T13:24:05;717.40;2124.80
26021;DHT22;13798;48.858;9.092;2022-07-10T13:26:30;717.50;2150.40
26021;DHT22;13798;48.858;9.092;2022-07-10T13:28:57;717.60;2022.40
26021;DHT22;13798;48.858;9.092;2022-07-10T13:31:23;717.60;2073.60
26021;DHT22;13798;48.858;9.092;2022-07-10T13:33:51;742.60;2099.20
26021;DHT22;13798;48.858;9.092;2022-07-10T13:36:17;691.40;2124.80
26021;DHT22;13798;48.858;9.092;2022-07-10T13:38:42;716.80;2150.40
26021;DHT22;13798;48.858;9.092;2022-07-10T13:41:08;717.00;2124.80
26021;DHT22;13798;48.858;9.092;2022-07-10T13:43:34;717.40;2099.20
26021;DHT22;13798;48.858;9.092;2022-07-10T13:46:00;742.60;2073.60
26021;DHT22;13798;48.858;9.092;2022-07-10T13:48:26;742.80;2022.40
26021;DHT22;13798;48.858;9.092;2022-07-10T13:50:52;717.00;1996.80
26021;DHT22;13798;48.858;9.092;2022-07-10T13:53:18;717.10;1996.80
26021;DHT22;13798;48.858;9.092;2022-07-10T13:55:44;691.70;2073.60
26021;DHT22;13798;48.858;9.092;2022-07-10T13:58:10;666.30;2099.20
26021;DHT22;13798;48.858;9.092;2022-07-10T14:00:37;666.00;2150.40
26021;DHT22;13798;48.858;9.092;2022-07-10T14:03:03;665.60;2176.00
26021;DHT22;13798;48.858;9.092;2022-07-10T14:05:29;691.80;2073.60
26021;DHT22;13798;48.858;9.092;2022-07-10T14:07:55;666.30;2150.40
26021;DHT22;13798;48.858;9.092;2022-07-10T14:10:21;691.90;2048.00
26021;DHT22;13798;48.858;9.092;2022-07-10T14:12:47;717.50;2048.00
26021;DHT22;13798;48.858;9.092;2022-07-10T14:15:13;717.00;2022.40
26021;DHT22;13798;48.858;9.092;2022-07-10T14:17:38;692.00;2073.60
26021;DHT22;13798;48.858;9.092;2022-07-10T14:20:04;691.60;2073.60
26021;DHT22;13798;48.858;9.092;2022-07-10T14:22:30;717.00;2073.60
26021;DHT22;13798;48.858;9.092;2022-07-10T14:24:56;717.60;2022.40
26021;DHT22;13798;48.858;9.092;2022-07-10T14:27:22;717.70;1996.80
26021;DHT22;13798;48.858;9.092;2022-07-10T14:29:49;717.70;2022.40
26021;DHT22;13798;48.858;9.092;2022-07-10T14:32:15;742.40;1996.80
26021;DHT22;13798;48.858;9.092;2022-07-10T14:34:41;717.70;1971.20
26021;DHT22;13798;48.858;9.092;2022-07-10T14:37:06;717.70;2022.40
26021;DHT22;13798;48.858;9.092;2022-07-10T14:39:32;717.20;1971.20
26021;DHT22;13798;48.858;9.092;2022-07-10T14:41:58;717.70;2022.40
26021;DHT22;13798;48.858;9.092;2022-07-10T14:44:23;742.80;1971.20
26021;DHT22;13798;48.858;9.092;2022-07-10T14:46:49;742.60;1920.00
26021;DHT22;13798;48.858;9.092;2022-07-10T14:49:14;743.10;1920.00
26021;DHT22;13798;48.858;9.092;2022-07-10T14:51:40;717.50;1894.40
26021;DHT22;13798;48.858;9.092;2022-07-10T14:54:05;717.60;1920.00
26021;DHT22;13798;48.858;9.092;2022-07-10T14:56:31;717.50;1945.60
26021;DHT22;13798;48.858;9.092;2022-07-10T14:58:56;742.40;1996.80
26021;DHT22;13798;48.858;9.092;2022-07-10T15:01:22;742.40;1945.60
26021;DHT22;13798;48.858;9.092;2022-07-10T15:03:47;717.70;1843.20
26021;DHT22;13798;48.858;9.092;2022-07-10T15:06:13;691.80;1920.00
26021;DHT22;13798;48.858;9.092;2022-07-10T15:08:38;691.50;1945.60
26021;DHT22;13798;48.858;9.092;2022-07-10T15:11:04;692.00;1945.60
26021;DHT22;13798;48.858;9.092;2022-07-10T15:13:31;692.10;1894.40
26021;DHT22;13798;48.858;9.092;2022-07-10T15:15:57;717.20;1996.80
26021;DHT22;13798;48.858;9.092;2022-07-10T15:18:22;717.10;1945.60
26021;DHT22;13798;48.858;9.092;2022-07-10T15:20:50;717.30;1945.60
26021;DHT22;13798;48.858;9.092;2022-07-10T15:23:20;691.90;1894.40
26021;DHT22;13798;48.858;9.092;2022-07-10T15:25:49;691.40;1920.00
26021;DHT22;13798;48.858;9.092;2022-07-10T15:28:16;691.90;1945.60
26021;DHT22;13798;48.858;9.092;2022-07-10T15:33:58;640.90;1996.80
26021;DHT22;13798;48.858;9.092;2022-07-10T15:37:00;691.40;1945.60
26021;DHT22;13798;48.858;9.092;2022-07-10T15:39:42;691.60;1971.20
26021;DHT22;13798;48.858;9.092;2022-07-10T15:42:26;691.90;1971.20
26021;DHT22;13798;48.858;9.092;2022-07-10T15:45:18;691.20;1894.40
26021;DHT22;13798;48.858;9.092;2022-07-10T15:47:52;691.20;1971.20
26021;DHT22;13798;48.858;9.092;2022-07-10T15:50:54;666.10;1945.60
26021;DHT22;13798;48.858;9.092;2022-07-10T16:01:01;666.30;2022.40
26021;DHT22;13798;48.858;9.092;2022-07-10T16:07:13;614.90;2048.00
26021;DHT22;13798;48.858;9.092;2022-07-10T16:17:05;589.00;2124.80
26021;DHT22;13798;48.858;9.092;2022-07-10T16:19:36;589.50;2124.80
26021;DHT22;13798;48.858;9.092;2022-07-10T16:22:02;589.20;2150.40
26021;DHT22;13798;48.858;9.092;2022-07-10T16:24:27;588.80;2201.60
26021;DHT22;13798;48.858;9.092;2022-07-10T16:26:54;614.40;2176.00
26021;DHT22;13798;48.858;9.092;2022-07-10T16:29:19;614.60;2150.40
26021;DHT22;13798;48.858;9.092;2022-07-10T16:31:45;589.60;2201.60
26021;DHT22;13798;48.858;9.092;2022-07-10T16:34:11;615.00;2176.00
26021;DHT22;13798;48.858;9.092;2022-07-10T16:36:41;640.20;2150.40
26021;DHT22;13798;48.858;9.092;2022-07-10T16:39:06;640.30;2073.60
26021;DHT22;13798;48.858;9.092;2022-07-10T16:41:35;640.40;2048.00
26021;DHT22;13798;48.858;9.092;2022-07-10T16:44:01;640.20;2048.00
26021;DHT22;13798;48.858;9.092;2022-07-10T16:46:26;615.30;2099.20
26021;DHT22;13798;48.858;9.092;2022-07-10T16:48:52;614.60;2150.40
26021;DHT22;13798;48.858;9.092;2022-07-10T16:51:18;614.90;2201.60
26021;DHT22;13798;48.858;9.092;2022-07-10T16:53:44;614.70;2176.00
26021;DHT22;13798;48.858;9.092;2022-07-10T16:56:09;614.70;2176.00
26021;DHT22;13798;48.858;9.092;2022-07-10T16:58:35;614.50;2201.60
26021;DHT22;13798;48.858;9.092;2022-07-10T17:01:01;589.50;2227.20
26021;DHT22;13798;48.858;9.092;2022-07-10T17:03:28;589.10;2227.20
26021;DHT22;13798;48.858;9.092;2022-07-10T17:05:54;589.20;2380.80
26021;DHT22;13798;48.858;9.092;2022-07-10T17:08:19;564.10;2355.20
26021;DHT22;13798;48.858;9.092;2022-07-10T17:10:45;589.10;2304.00
26021;DHT22;13798;48.858;9.092;2022-07-10T17:13:12;589.40;2278.40
26021;DHT22;13798;48.858;9.092;2022-07-10T17:15:38;589.30;2304.00
26021;DHT22;13798;48.858;9.092;2022-07-10T17:18:04;589.10;2278.40
26021;DHT22;13798;48.858;9.092;2022-07-10T17:20:30;588.90;2252.80
26021;DHT22;13798;48.858;9.092;2022-07-10T17:22:55;589.50;2278.40